sensor_id;sensor_type;location;lat;lon;timestamp;P1;durP1;ratioP1;P2;durP2;ratioP2
37051;SDS011;22964;52.272;13.356;2023-06-26T00:00:12;6.82;;;5.15;;
37051;SDS011;22964;52.272;13.356;2023-06-26T00:02:38;6.53;;;5.22;;
37051;SDS011;22964;52.272;13.356;2023-06-26T00:05:04;7.55;;;5.57;;
37051;SDS011;22964;52.272;13.356;2023-06-26T00:07:30;6.95;;;5.65;;
37051;SDS011;22964;52.272;13.356;2023-06-26T00:09:59;7.20;;;6.07;;
37051;SDS011;22964;52.272;13.356;2023-06-26T00:12:25;7.03;;;5.88;;
37051;SDS011;22964;52.272;13.356;2023-06-26T00:14:50;7.90;;;6.00;;
37051;SDS011;22964;52.272;13.356;2023-06-26T00:17:16;6.30;;;5.47;;
37051;SDS011;22964;52.272;13.356;2023-06-26T00:19:42;9.80;;;5.38;;
37051;SDS011;22964;52.272;13.356;2023-06-26T00:22:09;8.02;;;5.60;;
37051;SDS011;22964;52.272;13.356;2023-06-26T00:24:36;7.50;;;5.72;;
37051;SDS011;22964;52.272;13.356;2023-06-26T00:27:02;6.28;;;5.32;;
37051;SDS011;22964;52.272;13.356;2023-06-26T00:29:28;8.27;;;6.93;;
37051;SDS011;22964;52.272;13.356;2023-06-26T00:31:53;8.20;;;6.78;;
37051;SDS011;22964;52.272;13.356;2023-06-26T00:34:19;8.98;;;6.13;;
37051;SDS011;22964;52.272;13.356;2023-06-26T00:36:45;9.93;;;6.68;;
37051;SDS011;22964;52.272;13.356;2023-06-26T00:39:11;8.13;;;6.43;;
37051;SDS011;22964;52.272;13.356;2023-06-26T00:41:37;8.57;;;6.15;;
37051;SDS011;22964;52.272;13.356;2023-06-26T00:44:03;8.18;;;6.43;;
37051;SDS011;22964;52.272;13.356;2023-06-26T00:46:30;9.43;;;6.95;;
37051;SDS011;22964;52.272;13.356;2023-06-26T00:48:58;11.55;;;7.15;;
37051;SDS011;22964;52.272;13.356;2023-06-26T00:51:27;9.13;;;6.88;;
37051;SDS011;22964;52.272;13.356;2023-06-26T00:53:54;12.23;;;7.13;;
37051;SDS011;22964;52.272;13.356;2023-06-26T00:56:21;10.20;;;7.15;;
37051;SDS011;22964;52.272;13.356;2023-06-26T00:58:47;16.92;;;8.13;;
37051;SDS011;22964;52.272;13.356;2023-06-26T01:01:13;10.00;;;8.35;;
37051;SDS011;22964;52.272;13.356;2023-06-26T01:03:45;9.95;;;8.18;;
37051;SDS011;22964;52.272;13.356;2023-06-26T01:06:17;9.95;;;7.82;;
37051;SDS011;22964;52.272;13.356;2023-06-26T01:08:43;10.63;;;8.63;;
37051;SDS011;22964;52.272;13.356;2023-06-26T01:11:10;9.70;;;7.90;;
37051;SDS011;22964;52.272;13.356;2023-06-26T01:13:38;9.82;;;8.30;;
37051;SDS011;22964;52.272;13.356;2023-06-26T01:16:04;11.18;;;8.82;;
37051;SDS011;22964;52.272;13.356;2023-06-26T01:18:31;9.63;;;8.20;;
37051;SDS011;22964;52.272;13.356;2023-06-26T01:20:58;10.27;;;8.07;;
37051;SDS011;22964;52.272;13.356;2023-06-26T01:26:12;10.93;;;7.78;;
37051;SDS011;22964;52.272;13.356;2023-06-26T01:28:42;9.52;;;7.38;;
37051;SDS011;22964;52.272;13.356;2023-06-26T01:31:08;10.65;;;7.40;;
37051;SDS011;22964;52.272;13.356;2023-06-26T01:33:36;9.52;;;7.65;;
37051;SDS011;22964;52.272;13.356;2023-06-26T01:36:03;10.05;;;7.85;;
37051;SDS011;22964;52.272;13.356;2023-06-26T01:38:29;10.48;;;7.57;;
37051;SDS011;22964;52.272;13.356;2023-06-26T01:40:56;9.60;;;7.43;;
37051;SDS011;22964;52.272;13.356;2023-06-26T01:43:36;8.77;;;7.45;;
37051;SDS011;22964;52.272;13.356;2023-06-26T01:46:25;9.45;;;6.95;;
37051;SDS011;22964;52.272;13.356;2023-06-26T01:57:50;8.63;;;6.90;;
37051;SDS011;22964;52.272;13.356;2023-06-26T02:00:19;9.13;;;6.80;;
37051;SDS011;22964;52.272;13.356;2023-06-26T02:02:46;8.15;;;6.25;;
37051;SDS011;22964;52.272;13.356;2023-06-26T02:05:12;7.22;;;6.28;;
37051;SDS011;22964;52.272;13.356;2023-06-26T02:07:39;8.73;;;7.10;;
37051;SDS011;22964;52.272;13.356;2023-06-26T02:10:05;10.00;;;6.63;;
37051;SDS011;22964;52.272;13.356;2023-06-26T02:12:32;10.60;;;7.05;;
37051;SDS011;22964;52.272;13.356;2023-06-26T02:14:58;9.93;;;6.63;;
37051;SDS011;22964;52.272;13.356;2023-06-26T02:17:24;9.63;;;6.20;;
37051;SDS011;22964;52.272;13.356;2023-06-26T02:19:53;8.10;;;6.07;;
37051;SDS011;22964;52.272;13.356;2023-06-26T02:22:19;8.80;;;6.10;;
37051;SDS011;22964;52.272;13.356;2023-06-26T02:24:46;11.40;;;7.20;;
37051;SDS011;22964;52.272;13.356;2023-06-26T02:27:12;9.90;;;6.53;;
37051;SDS011;22964;52.272;13.356;2023-06-26T02:29:38;9.98;;;6.30;;
37051;SDS011;22964;52.272;13.356;2023-06-26T02:32:07;8.50;;;6.80;;
37051;SDS011;22964;52.272;13.356;2023-06-26T02:34:33;9.18;;;6.70;;
37051;SDS011;22964;52.272;13.356;2023-06-26T02:37:00;10.40;;;6.93;;
37051;SDS011;22964;52.272;13.356;2023-06-26T02:39:26;7.75;;;6.30;;
37051;SDS011;22964;52.272;13.356;2023-06-26T02:41:53;9.43;;;6.85;;
37051;SDS011;22964;52.272;13.356;2023-06-26T02:44:20;9.10;;;6.95;;
37051;SDS011;22964;52.272;13.356;2023-06-26T02:46:46;9.88;;;6.72;;
37051;SDS011;22964;52.272;13.356;2023-06-26T02:49:12;10.85;;;6.80;;
37051;SDS011;22964;52.272;13.356;2023-06-26T02:51:38;9.25;;;6.45;;
37051;SDS011;22964;52.272;13.356;2023-06-26T02:54:11;9.07;;;6.25;;
37051;SDS011;22964;52.272;13.356;2023-06-26T02:56:38;13.30;;;6.93;;
37051;SDS011;22964;52.272;13.356;2023-06-26T02:59:04;14.65;;;6.43;;
37051;SDS011;22964;52.272;13.356;2023-06-26T03:01:29;8.63;;;6.43;;
37051;SDS011;22964;52.272;13.356;2023-06-26T03:03:55;7.55;;;6.13;;
37051;SDS011;22964;52.272;13.356;2023-06-26T03:06:21;8.65;;;6.50;;
37051;SDS011;22964;52.272;13.356;2023-06-26T03:08:46;11.05;;;6.57;;
37051;SDS011;22964;52.272;13.356;2023-06-26T03:11:14;7.55;;;6.03;;
37051;SDS011;22964;52.272;13.356;2023-06-26T03:13:39;10.30;;;6.75;;
37051;SDS011;22964;52.272;13.356;2023-06-26T03:16:06;8.32;;;5.72;;
37051;SDS011;22964;52.272;13.356;2023-06-26T03:18:32;10.73;;;7.03;;
37051;SDS011;22964;52.272;13.356;2023-06-26T03:20:57;11.23;;;6.22;;
37051;SDS011;22964;52.272;13.356;2023-06-26T03:23:25;8.73;;;6.47;;
37051;SDS011;22964;52.272;13.356;2023-06-26T03:25:50;8.57;;;6.50;;
37051;SDS011;22964;52.272;13.356;2023-06-26T03:28:28;8.18;;;6.32;;
37051;SDS011;22964;52.272;13.356;2023-06-26T03:30:56;8.93;;;6.70;;
37051;SDS011;22964;52.272;13.356;2023-06-26T03:33:22;12.27;;;6.70;;
37051;SDS011;22964;52.272;13.356;2023-06-26T03:35:48;8.68;;;6.05;;
37051;SDS011;22964;52.272;13.356;2023-06-26T03:38:14;10.40;;;6.95;;
37051;SDS011;22964;52.272;13.356;2023-06-26T03:40:42;8.93;;;6.22;;
37051;SDS011;22964;52.272;13.356;2023-06-26T03:43:08;12.23;;;6.47;;
37051;SDS011;22964;52.272;13.356;2023-06-26T03:45:44;7.57;;;6.40;;
37051;SDS011;22964;52.272;13.356;2023-06-26T03:48:10;8.82;;;6.50;;
37051;SDS011;22964;52.272;13.356;2023-06-26T03:50:35;10.23;;;6.68;;
37051;SDS011;22964;52.272;13.356;2023-06-26T03:53:02;8.70;;;6.85;;
37051;SDS011;22964;52.272;13.356;2023-06-26T03:55:27;11.27;;;6.43;;
37051;SDS011;22964;52.272;13.356;2023-06-26T03:57:53;7.88;;;6.75;;
37051;SDS011;22964;52.272;13.356;2023-06-26T04:00:19;12.23;;;6.47;;
37051;SDS011;22964;52.272;13.356;2023-06-26T04:02:45;7.82;;;6.50;;
37051;SDS011;22964;52.272;13.356;2023-06-26T04:05:11;8.02;;;6.43;;
37051;SDS011;22964;52.272;13.356;2023-06-26T04:07:38;8.45;;;6.55;;
37051;SDS011;22964;52.272;13.356;2023-06-26T04:10:05;8.55;;;6.13;;
37051;SDS011;22964;52.272;13.356;2023-06-26T04:12:32;8.75;;;6.22;;
37051;SDS011;22964;52.272;13.356;2023-06-26T04:14:58;8.95;;;6.75;;
37051;SDS011;22964;52.272;13.356;2023-06-26T04:17:24;10.00;;;6.57;;
37051;SDS011;22964;52.272;13.356;2023-06-26T04:19:49;9.57;;;6.63;;
37051;SDS011;22964;52.272;13.356;2023-06-26T04:22:15;8.73;;;7.00;;
37051;SDS011;22964;52.272;13.356;2023-06-26T04:24:41;12.93;;;6.63;;
37051;SDS011;22964;52.272;13.356;2023-06-26T04:27:07;9.65;;;6.65;;
37051;SDS011;22964;52.272;13.356;2023-06-26T04:29:32;9.80;;;6.38;;
37051;SDS011;22964;52.272;13.356;2023-06-26T04:31:58;8.88;;;6.68;;
37051;SDS011;22964;52.272;13.356;2023-06-26T04:34:24;7.65;;;6.05;;
37051;SDS011;22964;52.272;13.356;2023-06-26T04:36:50;9.35;;;6.35;;
37051;SDS011;22964;52.272;13.356;2023-06-26T04:39:16;8.98;;;6.93;;
37051;SDS011;22964;52.272;13.356;2023-06-26T04:41:42;8.65;;;6.45;;
37051;SDS011;22964;52.272;13.356;2023-06-26T04:44:09;7.28;;;5.95;;
37051;SDS011;22964;52.272;13.356;2023-06-26T04:46:34;7.90;;;6.13;;
37051;SDS011;22964;52.272;13.356;2023-06-26T04:49:01;8.45;;;5.90;;
37051;SDS011;22964;52.272;13.356;2023-06-26T04:51:28;8.45;;;6.53;;
37051;SDS011;22964;52.272;13.356;2023-06-26T04:53:54;10.07;;;5.78;;
37051;SDS011;22964;52.272;13.356;2023-06-26T04:56:20;8.50;;;6.13;;
37051;SDS011;22964;52.272;13.356;2023-06-26T04:58:45;8.23;;;6.43;;
37051;SDS011;22964;52.272;13.356;2023-06-26T05:01:11;8.75;;;6.43;;
37051;SDS011;22964;52.272;13.356;2023-06-26T05:03:38;10.95;;;7.15;;
37051;SDS011;22964;52.272;13.356;2023-06-26T05:06:04;10.07;;;6.45;;
37051;SDS011;22964;52.272;13.356;2023-06-26T05:08:30;8.85;;;6.68;;
37051;SDS011;22964;52.272;13.356;2023-06-26T05:10:56;12.00;;;6.93;;
37051;SDS011;22964;52.272;13.356;2023-06-26T05:13:25;7.43;;;6.28;;
37051;SDS011;22964;52.272;13.356;2023-06-26T05:15:51;6.70;;;5.95;;
37051;SDS011;22964;52.272;13.356;2023-06-26T05:18:18;8.43;;;6.70;;
37051;SDS011;22964;52.272;13.356;2023-06-26T05:20:44;7.78;;;6.30;;
37051;SDS011;22964;52.272;13.356;2023-06-26T05:23:10;11.05;;;6.25;;
37051;SDS011;22964;52.272;13.356;2023-06-26T05:25:37;9.52;;;7.00;;
37051;SDS011;22964;52.272;13.356;2023-06-26T05:28:03;8.45;;;6.47;;
37051;SDS011;22964;52.272;13.356;2023-06-26T05:30:35;7.85;;;6.22;;
37051;SDS011;22964;52.272;13.356;2023-06-26T05:33:02;8.15;;;6.55;;
37051;SDS011;22964;52.272;13.356;2023-06-26T05:35:29;8.05;;;6.57;;
37051;SDS011;22964;52.272;13.356;2023-06-26T05:37:55;8.48;;;7.10;;
37051;SDS011;22964;52.272;13.356;2023-06-26T05:40:22;7.97;;;6.88;;
37051;SDS011;22964;52.272;13.356;2023-06-26T05:42:48;9.65;;;6.95;;
37051;SDS011;22964;52.272;13.356;2023-06-26T05:45:14;7.88;;;6.45;;
37051;SDS011;22964;52.272;13.356;2023-06-26T05:47:40;8.63;;;6.90;;
37051;SDS011;22964;52.272;13.356;2023-06-26T05:50:07;7.88;;;6.68;;
37051;SDS011;22964;52.272;13.356;2023-06-26T05:52:34;7.68;;;6.60;;
37051;SDS011;22964;52.272;13.356;2023-06-26T05:55:00;7.20;;;6.03;;
37051;SDS011;22964;52.272;13.356;2023-06-26T05:57:27;7.47;;;6.22;;
37051;SDS011;22964;52.272;13.356;2023-06-26T05:59:54;7.85;;;5.93;;
37051;SDS011;22964;52.272;13.356;2023-06-26T06:02:20;10.27;;;6.10;;
37051;SDS011;22964;52.272;13.356;2023-06-26T06:04:47;7.80;;;6.50;;
37051;SDS011;22964;52.272;13.356;2023-06-26T06:07:13;7.05;;;5.38;;
37051;SDS011;22964;52.272;13.356;2023-06-26T06:09:39;8.27;;;6.30;;
37051;SDS011;22964;52.272;13.356;2023-06-26T06:12:05;7.68;;;5.70;;
37051;SDS011;22964;52.272;13.356;2023-06-26T06:14:32;6.25;;;5.55;;
37051;SDS011;22964;52.272;13.356;2023-06-26T06:16:58;6.25;;;5.28;;
37051;SDS011;22964;52.272;13.356;2023-06-26T06:19:24;7.45;;;6.15;;
37051;SDS011;22964;52.272;13.356;2023-06-26T06:21:49;7.05;;;6.03;;
37051;SDS011;22964;52.272;13.356;2023-06-26T06:24:15;8.02;;;6.20;;
37051;SDS011;22964;52.272;13.356;2023-06-26T06:26:41;6.70;;;5.70;;
37051;SDS011;22964;52.272;13.356;2023-06-26T06:29:07;6.38;;;5.50;;
37051;SDS011;22964;52.272;13.356;2023-06-26T06:31:33;7.75;;;5.75;;
37051;SDS011;22964;52.272;13.356;2023-06-26T06:33:58;9.40;;;5.45;;
37051;SDS011;22964;52.272;13.356;2023-06-26T06:36:24;6.90;;;5.10;;
37051;SDS011;22964;52.272;13.356;2023-06-26T06:38:50;6.30;;;5.18;;
37051;SDS011;22964;52.272;13.356;2023-06-26T06:41:16;5.90;;;4.97;;
37051;SDS011;22964;52.272;13.356;2023-06-26T06:43:42;6.10;;;4.82;;
37051;SDS011;22964;52.272;13.356;2023-06-26T06:46:08;6.25;;;5.40;;
37051;SDS011;22964;52.272;13.356;2023-06-26T06:48:34;7.45;;;5.43;;
37051;SDS011;22964;52.272;13.356;2023-06-26T06:51:00;5.70;;;5.03;;
37051;SDS011;22964;52.272;13.356;2023-06-26T06:53:25;6.13;;;5.05;;
37051;SDS011;22964;52.272;13.356;2023-06-26T06:55:51;7.25;;;4.60;;
37051;SDS011;22964;52.272;13.356;2023-06-26T06:58:17;6.10;;;5.07;;
37051;SDS011;22964;52.272;13.356;2023-06-26T07:00:44;5.93;;;5.20;;
37051;SDS011;22964;52.272;13.356;2023-06-26T07:03:10;5.88;;;5.18;;
37051;SDS011;22964;52.272;13.356;2023-06-26T07:05:37;7.05;;;4.65;;
37051;SDS011;22964;52.272;13.356;2023-06-26T07:08:03;13.98;;;5.15;;
37051;SDS011;22964;52.272;13.356;2023-06-26T07:10:29;5.78;;;4.60;;
37051;SDS011;22964;52.272;13.356;2023-06-26T07:12:55;7.75;;;4.70;;
37051;SDS011;22964;52.272;13.356;2023-06-26T07:15:20;5.78;;;4.50;;
37051;SDS011;22964;52.272;13.356;2023-06-26T07:17:46;5.32;;;4.57;;
37051;SDS011;22964;52.272;13.356;2023-06-26T07:20:12;6.43;;;4.40;;
37051;SDS011;22964;52.272;13.356;2023-06-26T07:22:41;5.30;;;4.43;;
37051;SDS011;22964;52.272;13.356;2023-06-26T07:25:07;6.40;;;4.18;;
37051;SDS011;22964;52.272;13.356;2023-06-26T07:27:39;5.80;;;3.72;;
37051;SDS011;22964;52.272;13.356;2023-06-26T07:30:06;5.40;;;4.10;;
37051;SDS011;22964;52.272;13.356;2023-06-26T07:32:35;20.27;;;4.35;;
37051;SDS011;22964;52.272;13.356;2023-06-26T07:35:01;5.90;;;3.88;;
37051;SDS011;22964;52.272;13.356;2023-06-26T07:37:27;4.90;;;3.63;;
37051;SDS011;22964;52.272;13.356;2023-06-26T07:39:53;4.22;;;3.60;;
37051;SDS011;22964;52.272;13.356;2023-06-26T07:42:19;4.78;;;3.50;;
37051;SDS011;22964;52.272;13.356;2023-06-26T07:44:44;4.25;;;3.15;;
37051;SDS011;22964;52.272;13.356;2023-06-26T07:47:10;4.40;;;3.03;;
37051;SDS011;22964;52.272;13.356;2023-06-26T07:49:36;3.55;;;2.97;;
37051;SDS011;22964;52.272;13.356;2023-06-26T07:52:04;3.80;;;3.00;;
37051;SDS011;22964;52.272;13.356;2023-06-26T07:54:30;5.32;;;3.10;;
37051;SDS011;22964;52.272;13.356;2023-06-26T07:56:56;4.75;;;2.95;;
37051;SDS011;22964;52.272;13.356;2023-06-26T07:59:23;3.75;;;2.90;;
37051;SDS011;22964;52.272;13.356;2023-06-26T08:01:50;3.78;;;2.83;;
37051;SDS011;22964;52.272;13.356;2023-06-26T08:04:18;3.38;;;2.67;;
37051;SDS011;22964;52.272;13.356;2023-06-26T08:06:45;4.90;;;3.00;;
37051;SDS011;22964;52.272;13.356;2023-06-26T08:09:13;6.95;;;2.65;;
37051;SDS011;22964;52.272;13.356;2023-06-26T08:11:38;3.38;;;2.83;;
37051;SDS011;22964;52.272;13.356;2023-06-26T08:14:04;7.07;;;3.38;;
37051;SDS011;22964;52.272;13.356;2023-06-26T08:16:30;4.35;;;2.67;;
37051;SDS011;22964;52.272;13.356;2023-06-26T08:18:56;3.83;;;2.55;;
37051;SDS011;22964;52.272;13.356;2023-06-26T08:21:21;3.97;;;2.70;;
37051;SDS011;22964;52.272;13.356;2023-06-26T08:23:47;4.55;;;2.80;;
37051;SDS011;22964;52.272;13.356;2023-06-26T08:26:13;4.13;;;2.40;;
37051;SDS011;22964;52.272;13.356;2023-06-26T08:28:39;3.28;;;2.67;;
37051;SDS011;22964;52.272;13.356;2023-06-26T08:31:05;3.30;;;2.60;;
37051;SDS011;22964;52.272;13.356;2023-06-26T08:33:30;3.42;;;2.67;;
37051;SDS011;22964;52.272;13.356;2023-06-26T08:35:56;4.50;;;2.50;;
37051;SDS011;22964;52.272;13.356;2023-06-26T08:38:22;3.80;;;2.40;;
37051;SDS011;22964;52.272;13.356;2023-06-26T08:40:47;2.78;;;2.30;;
37051;SDS011;22964;52.272;13.356;2023-06-26T08:43:13;3.17;;;2.38;;
37051;SDS011;22964;52.272;13.356;2023-06-26T08:45:39;3.60;;;2.40;;
37051;SDS011;22964;52.272;13.356;2023-06-26T08:48:07;6.38;;;2.63;;
37051;SDS011;22964;52.272;13.356;2023-06-26T08:50:34;3.13;;;2.17;;
37051;SDS011;22964;52.272;13.356;2023-06-26T08:55:48;3.70;;;2.35;;
37051;SDS011;22964;52.272;13.356;2023-06-26T08:58:17;3.10;;;2.33;;
37051;SDS011;22964;52.272;13.356;2023-06-26T09:00:43;2.90;;;2.25;;
37051;SDS011;22964;52.272;13.356;2023-06-26T09:03:08;2.67;;;2.15;;
37051;SDS011;22964;52.272;13.356;2023-06-26T09:05:35;2.60;;;2.17;;
37051;SDS011;22964;52.272;13.356;2023-06-26T09:08:01;3.25;;;2.28;;
37051;SDS011;22964;52.272;13.356;2023-06-26T09:10:27;2.92;;;2.15;;
37051;SDS011;22964;52.272;13.356;2023-06-26T09:12:56;2.45;;;1.90;;
37051;SDS011;22964;52.272;13.356;2023-06-26T09:15:23;4.65;;;2.10;;
37051;SDS011;22964;52.272;13.356;2023-06-26T09:17:49;3.97;;;2.10;;
37051;SDS011;22964;52.272;13.356;2023-06-26T09:20:15;2.72;;;1.83;;
37051;SDS011;22964;52.272;13.356;2023-06-26T09:22:41;2.55;;;2.03;;
37051;SDS011;22964;52.272;13.356;2023-06-26T09:25:08;4.82;;;2.28;;
37051;SDS011;22964;52.272;13.356;2023-06-26T09:27:35;3.83;;;2.35;;
37051;SDS011;22964;52.272;13.356;2023-06-26T09:30:04;2.80;;;2.10;;
37051;SDS011;22964;52.272;13.356;2023-06-26T09:32:34;3.10;;;2.03;;
37051;SDS011;22964;52.272;13.356;2023-06-26T09:35:03;2.78;;;2.25;;
37051;SDS011;22964;52.272;13.356;2023-06-26T09:37:30;3.42;;;2.30;;
37051;SDS011;22964;52.272;13.356;2023-06-26T09:39:56;3.03;;;2.25;;
37051;SDS011;22964;52.272;13.356;2023-06-26T09:42:21;3.05;;;2.22;;
37051;SDS011;22964;52.272;13.356;2023-06-26T09:44:48;2.50;;;2.05;;
37051;SDS011;22964;52.272;13.356;2023-06-26T09:47:16;2.70;;;2.10;;
37051;SDS011;22964;52.272;13.356;2023-06-26T09:49:43;3.00;;;2.25;;
37051;SDS011;22964;52.272;13.356;2023-06-26T09:52:10;3.40;;;1.83;;
37051;SDS011;22964;52.272;13.356;2023-06-26T09:54:40;2.90;;;2.07;;
37051;SDS011;22964;52.272;13.356;2023-06-26T09:57:10;5.78;;;2.63;;
37051;SDS011;22964;52.272;13.356;2023-06-26T09:59:36;6.27;;;2.40;;
37051;SDS011;22964;52.272;13.356;2023-06-26T10:02:03;8.10;;;2.40;;
37051;SDS011;22964;52.272;13.356;2023-06-26T10:04:29;3.25;;;2.30;;
37051;SDS011;22964;52.272;13.356;2023-06-26T10:06:55;3.17;;;2.20;;
37051;SDS011;22964;52.272;13.356;2023-06-26T10:09:22;2.58;;;2.00;;
37051;SDS011;22964;52.272;13.356;2023-06-26T10:14:26;2.90;;;2.20;;
37051;SDS011;22964;52.272;13.356;2023-06-26T10:16:53;3.00;;;2.08;;
37051;SDS011;22964;52.272;13.356;2023-06-26T10:19:24;2.45;;;2.03;;
37051;SDS011;22964;52.272;13.356;2023-06-26T10:21:51;4.40;;;2.30;;
37051;SDS011;22964;52.272;13.356;2023-06-26T10:24:18;2.72;;;2.17;;
37051;SDS011;22964;52.272;13.356;2023-06-26T10:26:45;2.53;;;1.92;;
37051;SDS011;22964;52.272;13.356;2023-06-26T10:29:14;3.15;;;2.10;;
37051;SDS011;22964;52.272;13.356;2023-06-26T10:31:42;3.00;;;2.17;;
37051;SDS011;22964;52.272;13.356;2023-06-26T10:34:12;3.58;;;2.08;;
37051;SDS011;22964;52.272;13.356;2023-06-26T10:36:38;2.53;;;1.90;;
37051;SDS011;22964;52.272;13.356;2023-06-26T10:39:04;2.45;;;1.98;;
37051;SDS011;22964;52.272;13.356;2023-06-26T10:41:38;12.57;;;2.20;;
37051;SDS011;22964;52.272;13.356;2023-06-26T10:49:32;3.30;;;2.28;;
37051;SDS011;22964;52.272;13.356;2023-06-26T10:52:02;4.43;;;2.40;;
37051;SDS011;22964;52.272;13.356;2023-06-26T10:54:28;2.58;;;2.20;;
37051;SDS011;22964;52.272;13.356;2023-06-26T10:56:56;2.72;;;2.13;;
37051;SDS011;22964;52.272;13.356;2023-06-26T10:59:25;6.13;;;2.33;;
37051;SDS011;22964;52.272;13.356;2023-06-26T11:01:59;4.13;;;2.40;;
37051;SDS011;22964;52.272;13.356;2023-06-26T11:04:45;2.50;;;2.17;;
37051;SDS011;22964;52.272;13.356;2023-06-26T11:07:21;2.78;;;2.30;;
37051;SDS011;22964;52.272;13.356;2023-06-26T11:09:58;3.88;;;2.20;;
37051;SDS011;22964;52.272;13.356;2023-06-26T11:15:03;3.15;;;2.40;;
37051;SDS011;22964;52.272;13.356;2023-06-26T11:17:32;3.28;;;2.38;;
37051;SDS011;22964;52.272;13.356;2023-06-26T11:19:59;3.33;;;2.50;;
37051;SDS011;22964;52.272;13.356;2023-06-26T11:22:26;2.97;;;2.20;;
37051;SDS011;22964;52.272;13.356;2023-06-26T11:24:53;2.92;;;2.10;;
37051;SDS011;22964;52.272;13.356;2023-06-26T11:27:19;3.38;;;2.30;;
37051;SDS011;22964;52.272;13.356;2023-06-26T11:29:48;3.60;;;2.15;;
37051;SDS011;22964;52.272;13.356;2023-06-26T11:32:17;3.20;;;2.50;;
37051;SDS011;22964;52.272;13.356;2023-06-26T11:34:42;3.17;;;2.30;;
37051;SDS011;22964;52.272;13.356;2023-06-26T11:37:09;2.95;;;2.40;;
37051;SDS011;22964;52.272;13.356;2023-06-26T11:39:35;3.22;;;2.40;;
37051;SDS011;22964;52.272;13.356;2023-06-26T11:42:02;2.90;;;2.40;;
37051;SDS011;22964;52.272;13.356;2023-06-26T11:44:31;3.35;;;2.30;;
37051;SDS011;22964;52.272;13.356;2023-06-26T11:46:57;3.20;;;2.10;;
37051;SDS011;22964;52.272;13.356;2023-06-26T11:49:23;2.90;;;2.50;;
37051;SDS011;22964;52.272;13.356;2023-06-26T11:51:51;3.13;;;2.40;;
37051;SDS011;22964;52.272;13.356;2023-06-26T11:54:23;3.30;;;2.60;;
37051;SDS011;22964;52.272;13.356;2023-06-26T11:56:54;3.53;;;2.50;;
37051;SDS011;22964;52.272;13.356;2023-06-26T11:59:21;3.40;;;2.38;;
37051;SDS011;22964;52.272;13.356;2023-06-26T12:01:49;3.30;;;2.78;;
37051;SDS011;22964;52.272;13.356;2023-06-26T12:04:16;3.40;;;2.70;;
37051;SDS011;22964;52.272;13.356;2023-06-26T12:06:48;4.88;;;2.55;;
37051;SDS011;22964;52.272;13.356;2023-06-26T12:09:16;3.33;;;2.30;;
37051;SDS011;22964;52.272;13.356;2023-06-26T12:11:46;2.97;;;2.67;;
37051;SDS011;22964;52.272;13.356;2023-06-26T12:14:15;4.22;;;2.60;;
37051;SDS011;22964;52.272;13.356;2023-06-26T12:16:43;3.47;;;2.60;;
37051;SDS011;22964;52.272;13.356;2023-06-26T12:19:08;3.10;;;2.50;;
37051;SDS011;22964;52.272;13.356;2023-06-26T12:24:24;4.05;;;2.53;;
37051;SDS011;22964;52.272;13.356;2023-06-26T12:26:50;3.00;;;2.47;;
37051;SDS011;22964;52.272;13.356;2023-06-26T12:29:19;2.97;;;2.65;;
37051;SDS011;22964;52.272;13.356;2023-06-26T12:31:49;5.60;;;2.63;;
37051;SDS011;22964;52.272;13.356;2023-06-26T12:34:18;3.10;;;2.72;;
37051;SDS011;22964;52.272;13.356;2023-06-26T12:36:47;4.85;;;2.80;;
37051;SDS011;22964;52.272;13.356;2023-06-26T12:39:17;3.55;;;2.83;;
37051;SDS011;22964;52.272;13.356;2023-06-26T12:41:53;3.35;;;2.80;;
37051;SDS011;22964;52.272;13.356;2023-06-26T12:44:19;3.58;;;2.53;;
37051;SDS011;22964;52.272;13.356;2023-06-26T12:46:54;3.63;;;2.90;;
37051;SDS011;22964;52.272;13.356;2023-06-26T12:49:31;5.07;;;2.60;;
37051;SDS011;22964;52.272;13.356;2023-06-26T12:52:01;4.68;;;2.58;;
37051;SDS011;22964;52.272;13.356;2023-06-26T12:54:29;4.70;;;2.92;;
37051;SDS011;22964;52.272;13.356;2023-06-26T12:56:54;9.80;;;3.08;;
37051;SDS011;22964;52.272;13.356;2023-06-26T12:59:20;3.88;;;2.80;;
37051;SDS011;22964;52.272;13.356;2023-06-26T13:01:47;3.30;;;2.85;;
37051;SDS011;22964;52.272;13.356;2023-06-26T13:04:13;3.78;;;2.95;;
37051;SDS011;22964;52.272;13.356;2023-06-26T13:06:39;4.68;;;2.88;;
37051;SDS011;22964;52.272;13.356;2023-06-26T13:09:04;3.47;;;2.95;;
37051;SDS011;22964;52.272;13.356;2023-06-26T13:11:31;5.38;;;3.28;;
37051;SDS011;22964;52.272;13.356;2023-06-26T13:13:58;4.20;;;3.00;;
37051;SDS011;22964;52.272;13.356;2023-06-26T13:16:24;4.35;;;2.75;;
37051;SDS011;22964;52.272;13.356;2023-06-26T13:18:50;3.22;;;2.85;;
37051;SDS011;22964;52.272;13.356;2023-06-26T13:21:16;3.47;;;2.97;;
37051;SDS011;22964;52.272;13.356;2023-06-26T13:23:43;4.72;;;2.60;;
37051;SDS011;22964;52.272;13.356;2023-06-26T13:26:09;8.35;;;3.05;;
37051;SDS011;22964;52.272;13.356;2023-06-26T13:28:36;3.40;;;2.90;;
37051;SDS011;22964;52.272;13.356;2023-06-26T13:31:02;4.65;;;3.10;;
37051;SDS011;22964;52.272;13.356;2023-06-26T13:33:28;3.40;;;2.67;;
37051;SDS011;22964;52.272;13.356;2023-06-26T13:35:55;4.43;;;2.92;;
37051;SDS011;22964;52.272;13.356;2023-06-26T13:38:21;4.65;;;2.83;;
37051;SDS011;22964;52.272;13.356;2023-06-26T13:40:51;6.07;;;2.78;;
37051;SDS011;22964;52.272;13.356;2023-06-26T13:43:18;3.03;;;2.63;;
37051;SDS011;22964;52.272;13.356;2023-06-26T13:45:43;3.95;;;2.80;;
37051;SDS011;22964;52.272;13.356;2023-06-26T13:48:09;5.63;;;2.80;;
37051;SDS011;22964;52.272;13.356;2023-06-26T13:50:35;3.53;;;2.70;;
37051;SDS011;22964;52.272;13.356;2023-06-26T13:53:01;3.58;;;2.63;;
37051;SDS011;22964;52.272;13.356;2023-06-26T13:55:27;3.15;;;2.63;;
37051;SDS011;22964;52.272;13.356;2023-06-26T13:57:53;5.22;;;3.00;;
37051;SDS011;22964;52.272;13.356;2023-06-26T14:00:18;3.00;;;2.60;;
37051;SDS011;22964;52.272;13.356;2023-06-26T14:02:46;4.75;;;2.88;;
37051;SDS011;22964;52.272;13.356;2023-06-26T14:05:12;3.80;;;2.67;;
37051;SDS011;22964;52.272;13.356;2023-06-26T14:07:38;5.18;;;3.05;;
37051;SDS011;22964;52.272;13.356;2023-06-26T14:10:04;3.97;;;2.97;;
37051;SDS011;22964;52.272;13.356;2023-06-26T14:12:31;9.98;;;2.90;;
37051;SDS011;22964;52.272;13.356;2023-06-26T14:14:57;3.10;;;2.40;;
37051;SDS011;22964;52.272;13.356;2023-06-26T14:17:24;4.75;;;2.90;;
37051;SDS011;22964;52.272;13.356;2023-06-26T14:19:51;3.67;;;2.88;;
37051;SDS011;22964;52.272;13.356;2023-06-26T14:22:17;3.90;;;2.95;;
37051;SDS011;22964;52.272;13.356;2023-06-26T14:24:43;5.22;;;2.47;;
37051;SDS011;22964;52.272;13.356;2023-06-26T14:27:09;4.10;;;2.83;;
37051;SDS011;22964;52.272;13.356;2023-06-26T14:29:35;3.30;;;2.60;;
37051;SDS011;22964;52.272;13.356;2023-06-26T14:32:01;3.90;;;2.65;;
37051;SDS011;22964;52.272;13.356;2023-06-26T14:34:28;6.78;;;2.88;;
37051;SDS011;22964;52.272;13.356;2023-06-26T14:36:54;12.20;;;2.97;;
37051;SDS011;22964;52.272;13.356;2023-06-26T14:39:22;10.18;;;2.80;;
37051;SDS011;22964;52.272;13.356;2023-06-26T14:41:48;5.50;;;2.65;;
37051;SDS011;22964;52.272;13.356;2023-06-26T14:44:14;10.93;;;2.88;;
37051;SDS011;22964;52.272;13.356;2023-06-26T14:46:40;5.85;;;2.92;;
37051;SDS011;22964;52.272;13.356;2023-06-26T14:49:05;14.27;;;2.97;;
37051;SDS011;22964;52.272;13.356;2023-06-26T14:51:31;9.05;;;2.95;;
37051;SDS011;22964;52.272;13.356;2023-06-26T14:53:57;4.40;;;2.47;;
37051;SDS011;22964;52.272;13.356;2023-06-26T14:56:23;6.13;;;2.90;;
37051;SDS011;22964;52.272;13.356;2023-06-26T14:58:49;4.57;;;2.90;;